sensor_id;sensor_type;location;lat;lon;timestamp;P1;durP1;ratioP1;P2;durP2;ratioP2
60336;SDS011;46978;50.288;28.624;2023-03-01T00:00:39;19.10;;;11.12;;
60336;SDS011;46978;50.288;28.624;2023-03-01T00:01:41;19.46;;;10.17;;
60336;SDS011;46978;50.288;28.624;2023-03-01T00:02:43;17.82;;;10.54;;
60336;SDS011;46978;50.288;28.624;2023-03-01T00:03:45;18.03;;;10.49;;
60336;SDS011;46978;50.288;28.624;2023-03-01T00:04:47;18.34;;;10.00;;
60336;SDS011;46978;50.288;28.624;2023-03-01T00:05:48;16.59;;;9.64;;
60336;SDS011;46978;50.288;28.624;2023-03-01T00:06:50;17.34;;;10.06;;
60336;SDS011;46978;50.288;28.624;2023-03-01T00:07:53;18.77;;;9.93;;
60336;SDS011;46978;50.288;28.624;2023-03-01T00:08:54;18.54;;;10.40;;
60336;SDS011;46978;50.288;28.624;2023-03-01T00:09:56;20.49;;;10.38;;
60336;SDS011;46978;50.288;28.624;2023-03-01T00:12:21;18.12;;;10.42;;
60336;SDS011;46978;50.288;28.624;2023-03-01T00:13:23;19.78;;;10.16;;
60336;SDS011;46978;50.288;28.624;2023-03-01T00:14:24;18.25;;;10.05;;
60336;SDS011;46978;50.288;28.624;2023-03-01T00:15:26;19.50;;;10.81;;
60336;SDS011;46978;50.288;28.624;2023-03-01T00:16:29;16.55;;;10.00;;
60336;SDS011;46978;50.288;28.624;2023-03-01T00:17:33;16.70;;;9.68;;
60336;SDS011;46978;50.288;28.624;2023-03-01T00:18:35;17.41;;;10.17;;
60336;SDS011;46978;50.288;28.624;2023-03-01T00:19:37;19.23;;;10.43;;
60336;SDS011;46978;50.288;28.624;2023-03-01T00:20:38;19.49;;;10.76;;
60336;SDS011;46978;50.288;28.624;2023-03-01T00:21:40;17.27;;;9.97;;
60336;SDS011;46978;50.288;28.624;2023-03-01T00:22:42;17.53;;;9.87;;
60336;SDS011;46978;50.288;28.624;2023-03-01T00:23:43;18.43;;;10.35;;
60336;SDS011;46978;50.288;28.624;2023-03-01T00:24:45;18.66;;;10.74;;
60336;SDS011;46978;50.288;28.624;2023-03-01T00:25:47;16.44;;;10.06;;
60336;SDS011;46978;50.288;28.624;2023-03-01T00:26:52;17.30;;;9.33;;
60336;SDS011;46978;50.288;28.624;2023-03-01T00:27:54;17.30;;;9.54;;
60336;SDS011;46978;50.288;28.624;2023-03-01T00:28:56;16.18;;;9.81;;
60336;SDS011;46978;50.288;28.624;2023-03-01T00:29:59;18.73;;;10.04;;
60336;SDS011;46978;50.288;28.624;2023-03-01T00:31:13;16.71;;;9.95;;
60336;SDS011;46978;50.288;28.624;2023-03-01T00:32:12;18.57;;;9.46;;
60336;SDS011;46978;50.288;28.624;2023-03-01T00:33:13;18.47;;;10.20;;
60336;SDS011;46978;50.288;28.624;2023-03-01T00:34:15;17.63;;;9.96;;
60336;SDS011;46978;50.288;28.624;2023-03-01T00:35:17;14.78;;;8.99;;
60336;SDS011;46978;50.288;28.624;2023-03-01T00:36:18;18.68;;;10.28;;
60336;SDS011;46978;50.288;28.624;2023-03-01T00:37:20;17.85;;;10.26;;
60336;SDS011;46978;50.288;28.624;2023-03-01T00:38:22;17.21;;;9.85;;
60336;SDS011;46978;50.288;28.624;2023-03-01T00:39:24;19.56;;;10.30;;
60336;SDS011;46978;50.288;28.624;2023-03-01T00:40:31;18.18;;;9.91;;
60336;SDS011;46978;50.288;28.624;2023-03-01T00:41:29;18.00;;;10.25;;
60336;SDS011;46978;50.288;28.624;2023-03-01T00:42:31;16.59;;;9.66;;
60336;SDS011;46978;50.288;28.624;2023-03-01T00:43:33;14.96;;;9.51;;
60336;SDS011;46978;50.288;28.624;2023-03-01T00:44:34;16.73;;;9.36;;
60336;SDS011;46978;50.288;28.624;2023-03-01T00:45:36;17.94;;;9.82;;
60336;SDS011;46978;50.288;28.624;2023-03-01T00:46:38;17.56;;;9.76;;
60336;SDS011;46978;50.288;28.624;2023-03-01T00:47:40;19.48;;;11.45;;
60336;SDS011;46978;50.288;28.624;2023-03-01T00:48:41;21.32;;;11.43;;
60336;SDS011;46978;50.288;28.624;2023-03-01T00:49:44;20.06;;;11.78;;
60336;SDS011;46978;50.288;28.624;2023-03-01T00:50:45;17.31;;;11.04;;
60336;SDS011;46978;50.288;28.624;2023-03-01T00:51:47;19.78;;;11.34;;
60336;SDS011;46978;50.288;28.624;2023-03-01T00:52:52;18.85;;;11.18;;
60336;SDS011;46978;50.288;28.624;2023-03-01T00:53:58;26.01;;;11.79;;
60336;SDS011;46978;50.288;28.624;2023-03-01T00:55:00;18.95;;;10.78;;
60336;SDS011;46978;50.288;28.624;2023-03-01T00:56:02;16.86;;;9.82;;
60336;SDS011;46978;50.288;28.624;2023-03-01T00:57:05;19.16;;;10.48;;
60336;SDS011;46978;50.288;28.624;2023-03-01T00:58:07;16.94;;;10.01;;
60336;SDS011;46978;50.288;28.624;2023-03-01T00:59:08;17.40;;;10.04;;
60336;SDS011;46978;50.288;28.624;2023-03-01T01:00:12;19.32;;;10.91;;
60336;SDS011;46978;50.288;28.624;2023-03-01T01:01:22;16.11;;;9.66;;
60336;SDS011;46978;50.288;28.624;2023-03-01T01:02:22;17.48;;;9.91;;
60336;SDS011;46978;50.288;28.624;2023-03-01T01:03:24;21.15;;;10.83;;
60336;SDS011;46978;50.288;28.624;2023-03-01T01:04:26;17.61;;;10.26;;
60336;SDS011;46978;50.288;28.624;2023-03-01T01:05:27;19.44;;;10.15;;
60336;SDS011;46978;50.288;28.624;2023-03-01T01:06:30;17.63;;;9.16;;
60336;SDS011;46978;50.288;28.624;2023-03-01T01:07:36;17.16;;;10.46;;
60336;SDS011;46978;50.288;28.624;2023-03-01T01:08:38;20.44;;;10.47;;
60336;SDS011;46978;50.288;28.624;2023-03-01T01:09:40;15.74;;;9.74;;
60336;SDS011;46978;50.288;28.624;2023-03-01T01:10:43;17.23;;;9.64;;
60336;SDS011;46978;50.288;28.624;2023-03-01T01:11:52;17.74;;;9.08;;
60336;SDS011;46978;50.288;28.624;2023-03-01T01:12:52;17.93;;;10.66;;
60336;SDS011;46978;50.288;28.624;2023-03-01T01:13:54;17.95;;;9.96;;
60336;SDS011;46978;50.288;28.624;2023-03-01T01:14:56;19.44;;;10.49;;
60336;SDS011;46978;50.288;28.624;2023-03-01T01:16:02;16.78;;;9.93;;
60336;SDS011;46978;50.288;28.624;2023-03-01T01:17:02;18.46;;;9.85;;
60336;SDS011;46978;50.288;28.624;2023-03-01T01:18:03;20.66;;;9.91;;
60336;SDS011;46978;50.288;28.624;2023-03-01T01:19:05;17.73;;;10.18;;
60336;SDS011;46978;50.288;28.624;2023-03-01T01:20:08;18.07;;;10.04;;
60336;SDS011;46978;50.288;28.624;2023-03-01T01:21:12;17.81;;;10.39;;
60336;SDS011;46978;50.288;28.624;2023-03-01T01:22:15;18.61;;;10.52;;
60336;SDS011;46978;50.288;28.624;2023-03-01T01:23:17;19.73;;;10.32;;
60336;SDS011;46978;50.288;28.624;2023-03-01T01:24:19;19.52;;;10.96;;
60336;SDS011;46978;50.288;28.624;2023-03-01T01:25:21;20.88;;;11.19;;
60336;SDS011;46978;50.288;28.624;2023-03-01T01:26:27;18.95;;;10.27;;
60336;SDS011;46978;50.288;28.624;2023-03-01T01:27:30;21.34;;;10.44;;
60336;SDS011;46978;50.288;28.624;2023-03-01T01:28:32;19.49;;;9.96;;
60336;SDS011;46978;50.288;28.624;2023-03-01T01:29:34;18.46;;;10.35;;
60336;SDS011;46978;50.288;28.624;2023-03-01T01:30:35;18.12;;;9.97;;
60336;SDS011;46978;50.288;28.624;2023-03-01T01:31:37;19.19;;;10.47;;
60336;SDS011;46978;50.288;28.624;2023-03-01T01:32:40;18.19;;;9.63;;
60336;SDS011;46978;50.288;28.624;2023-03-01T01:33:42;21.19;;;10.89;;
60336;SDS011;46978;50.288;28.624;2023-03-01T01:34:44;19.53;;;10.86;;
60336;SDS011;46978;50.288;28.624;2023-03-01T01:35:45;22.16;;;10.45;;
60336;SDS011;46978;50.288;28.624;2023-03-01T01:36:52;19.21;;;9.86;;
60336;SDS011;46978;50.288;28.624;2023-03-01T01:37:53;19.64;;;10.54;;
60336;SDS011;46978;50.288;28.624;2023-03-01T01:38:54;17.74;;;10.14;;
60336;SDS011;46978;50.288;28.624;2023-03-01T01:39:59;18.16;;;10.13;;
60336;SDS011;46978;50.288;28.624;2023-03-01T01:41:02;19.04;;;10.86;;
60336;SDS011;46978;50.288;28.624;2023-03-01T01:42:04;20.09;;;10.33;;
60336;SDS011;46978;50.288;28.624;2023-03-01T01:43:08;17.89;;;10.38;;
60336;SDS011;46978;50.288;28.624;2023-03-01T01:44:21;21.18;;;11.61;;
60336;SDS011;46978;50.288;28.624;2023-03-01T01:45:34;20.89;;;11.39;;
60336;SDS011;46978;50.288;28.624;2023-03-01T01:48:07;16.87;;;10.45;;
60336;SDS011;46978;50.288;28.624;2023-03-01T01:49:20;16.78;;;9.85;;
60336;SDS011;46978;50.288;28.624;2023-03-01T01:51:59;20.77;;;10.27;;
60336;SDS011;46978;50.288;28.624;2023-03-01T01:52:58;17.13;;;9.97;;
60336;SDS011;46978;50.288;28.624;2023-03-01T01:54:00;18.19;;;10.04;;
60336;SDS011;46978;50.288;28.624;2023-03-01T01:55:07;19.24;;;10.93;;
60336;SDS011;46978;50.288;28.624;2023-03-01T01:56:10;18.33;;;9.87;;
60336;SDS011;46978;50.288;28.624;2023-03-01T01:57:19;17.71;;;10.16;;
60336;SDS011;46978;50.288;28.624;2023-03-01T01:58:27;18.56;;;10.42;;
60336;SDS011;46978;50.288;28.624;2023-03-01T01:59:31;18.61;;;10.08;;
60336;SDS011;46978;50.288;28.624;2023-03-01T02:00:34;20.94;;;11.26;;
60336;SDS011;46978;50.288;28.624;2023-03-01T02:01:38;19.89;;;11.21;;
60336;SDS011;46978;50.288;28.624;2023-03-01T02:02:39;22.25;;;10.63;;
60336;SDS011;46978;50.288;28.624;2023-03-01T02:03:43;19.61;;;11.47;;
60336;SDS011;46978;50.288;28.624;2023-03-01T02:04:47;19.75;;;10.53;;
60336;SDS011;46978;50.288;28.624;2023-03-01T02:05:55;17.74;;;10.84;;
60336;SDS011;46978;50.288;28.624;2023-03-01T02:07:04;19.66;;;11.52;;
60336;SDS011;46978;50.288;28.624;2023-03-01T02:08:11;21.84;;;11.76;;
60336;SDS011;46978;50.288;28.624;2023-03-01T02:09:14;19.17;;;11.53;;
60336;SDS011;46978;50.288;28.624;2023-03-01T02:10:18;21.76;;;12.41;;
60336;SDS011;46978;50.288;28.624;2023-03-01T02:11:20;19.29;;;11.95;;
60336;SDS011;46978;50.288;28.624;2023-03-01T02:12:23;21.12;;;11.77;;
60336;SDS011;46978;50.288;28.624;2023-03-01T02:13:26;20.59;;;11.26;;
60336;SDS011;46978;50.288;28.624;2023-03-01T02:14:27;20.47;;;11.36;;
60336;SDS011;46978;50.288;28.624;2023-03-01T02:15:36;18.68;;;10.76;;
60336;SDS011;46978;50.288;28.624;2023-03-01T02:16:39;18.92;;;10.68;;
60336;SDS011;46978;50.288;28.624;2023-03-01T02:17:41;18.98;;;10.69;;
60336;SDS011;46978;50.288;28.624;2023-03-01T02:18:43;19.11;;;11.06;;
60336;SDS011;46978;50.288;28.624;2023-03-01T02:23:32;19.94;;;10.42;;
60336;SDS011;46978;50.288;28.624;2023-03-01T02:24:38;18.72;;;11.37;;
60336;SDS011;46978;50.288;28.624;2023-03-01T02:26:00;20.66;;;11.69;;
60336;SDS011;46978;50.288;28.624;2023-03-01T02:27:03;19.91;;;10.98;;
60336;SDS011;46978;50.288;28.624;2023-03-01T02:28:40;20.87;;;11.20;;
60336;SDS011;46978;50.288;28.624;2023-03-01T02:29:16;23.61;;;11.78;;
60336;SDS011;46978;50.288;28.624;2023-03-01T02:30:19;21.33;;;11.01;;
60336;SDS011;46978;50.288;28.624;2023-03-01T02:31:23;20.11;;;11.76;;
60336;SDS011;46978;50.288;28.624;2023-03-01T02:32:24;20.12;;;11.58;;
60336;SDS011;46978;50.288;28.624;2023-03-01T02:33:27;20.04;;;11.54;;
60336;SDS011;46978;50.288;28.624;2023-03-01T02:34:29;20.53;;;11.71;;
60336;SDS011;46978;50.288;28.624;2023-03-01T02:35:33;18.42;;;10.71;;
60336;SDS011;46978;50.288;28.624;2023-03-01T02:36:39;18.21;;;11.02;;
60336;SDS011;46978;50.288;28.624;2023-03-01T02:37:43;19.74;;;11.46;;
60336;SDS011;46978;50.288;28.624;2023-03-01T02:38:46;18.64;;;10.87;;
60336;SDS011;46978;50.288;28.624;2023-03-01T02:39:49;18.16;;;11.09;;
60336;SDS011;46978;50.288;28.624;2023-03-01T02:40:54;19.32;;;11.10;;
60336;SDS011;46978;50.288;28.624;2023-03-01T02:41:58;19.76;;;11.17;;
60336;SDS011;46978;50.288;28.624;2023-03-01T02:43:00;18.94;;;11.24;;
60336;SDS011;46978;50.288;28.624;2023-03-01T02:44:02;20.60;;;11.63;;
60336;SDS011;46978;50.288;28.624;2023-03-01T02:45:05;17.82;;;11.16;;
60336;SDS011;46978;50.288;28.624;2023-03-01T02:46:12;21.43;;;11.88;;
60336;SDS011;46978;50.288;28.624;2023-03-01T02:47:16;20.91;;;11.47;;
60336;SDS011;46978;50.288;28.624;2023-03-01T02:48:18;20.71;;;10.82;;
60336;SDS011;46978;50.288;28.624;2023-03-01T02:49:22;19.69;;;10.97;;
60336;SDS011;46978;50.288;28.624;2023-03-01T02:51:48;19.47;;;10.98;;
60336;SDS011;46978;50.288;28.624;2023-03-01T02:54:06;22.54;;;11.97;;
60336;SDS011;46978;50.288;28.624;2023-03-01T02:55:09;20.26;;;11.87;;
60336;SDS011;46978;50.288;28.624;2023-03-01T02:56:13;20.51;;;11.38;;
60336;SDS011;46978;50.288;28.624;2023-03-01T02:57:16;18.89;;;11.65;;
60336;SDS011;46978;50.288;28.624;2023-03-01T02:58:18;18.01;;;11.11;;
60336;SDS011;46978;50.288;28.624;2023-03-01T02:59:21;22.07;;;11.97;;
60336;SDS011;46978;50.288;28.624;2023-03-01T03:00:26;19.24;;;11.16;;
60336;SDS011;46978;50.288;28.624;2023-03-01T03:01:34;21.30;;;11.85;;
60336;SDS011;46978;50.288;28.624;2023-03-01T03:02:36;19.79;;;11.91;;
60336;SDS011;46978;50.288;28.624;2023-03-01T03:03:38;23.26;;;12.30;;
60336;SDS011;46978;50.288;28.624;2023-03-01T03:04:40;20.11;;;12.24;;
60336;SDS011;46978;50.288;28.624;2023-03-01T03:05:42;21.53;;;12.12;;
60336;SDS011;46978;50.288;28.624;2023-03-01T03:06:44;21.01;;;12.73;;
60336;SDS011;46978;50.288;28.624;2023-03-01T03:07:47;20.37;;;12.73;;
60336;SDS011;46978;50.288;28.624;2023-03-01T03:08:50;21.48;;;12.53;;
60336;SDS011;46978;50.288;28.624;2023-03-01T03:09:51;19.56;;;12.93;;
60336;SDS011;46978;50.288;28.624;2023-03-01T03:10:53;22.18;;;12.19;;
60336;SDS011;46978;50.288;28.624;2023-03-01T03:11:55;21.64;;;12.22;;
60336;SDS011;46978;50.288;28.624;2023-03-01T03:13:00;18.74;;;11.90;;
60336;SDS011;46978;50.288;28.624;2023-03-01T03:14:05;23.53;;;12.89;;
60336;SDS011;46978;50.288;28.624;2023-03-01T03:15:07;21.33;;;12.94;;
60336;SDS011;46978;50.288;28.624;2023-03-01T03:16:11;22.85;;;12.31;;
60336;SDS011;46978;50.288;28.624;2023-03-01T03:17:12;24.19;;;12.69;;
60336;SDS011;46978;50.288;28.624;2023-03-01T03:18:15;20.47;;;12.20;;
60336;SDS011;46978;50.288;28.624;2023-03-01T03:19:18;21.16;;;11.99;;
60336;SDS011;46978;50.288;28.624;2023-03-01T03:20:21;20.45;;;11.87;;
60336;SDS011;46978;50.288;28.624;2023-03-01T03:21:25;19.81;;;11.93;;
60336;SDS011;46978;50.288;28.624;2023-03-01T03:22:27;20.90;;;12.19;;
60336;SDS011;46978;50.288;28.624;2023-03-01T03:23:28;21.82;;;12.81;;
60336;SDS011;46978;50.288;28.624;2023-03-01T03:24:30;20.06;;;11.50;;
60336;SDS011;46978;50.288;28.624;2023-03-01T03:25:31;20.19;;;11.19;;
60336;SDS011;46978;50.288;28.624;2023-03-01T03:26:33;22.67;;;11.61;;
60336;SDS011;46978;50.288;28.624;2023-03-01T03:27:36;22.52;;;12.56;;
60336;SDS011;46978;50.288;28.624;2023-03-01T03:28:39;21.22;;;12.63;;
60336;SDS011;46978;50.288;28.624;2023-03-01T03:29:40;21.11;;;12.52;;
60336;SDS011;46978;50.288;28.624;2023-03-01T03:30:42;22.22;;;12.36;;
60336;SDS011;46978;50.288;28.624;2023-03-01T03:31:45;21.46;;;11.88;;
60336;SDS011;46978;50.288;28.624;2023-03-01T03:32:47;23.61;;;12.31;;
60336;SDS011;46978;50.288;28.624;2023-03-01T03:33:49;22.43;;;12.91;;
60336;SDS011;46978;50.288;28.624;2023-03-01T03:34:50;20.38;;;12.66;;
60336;SDS011;46978;50.288;28.624;2023-03-01T03:35:52;20.66;;;11.49;;
60336;SDS011;46978;50.288;28.624;2023-03-01T03:36:54;22.22;;;12.06;;
60336;SDS011;46978;50.288;28.624;2023-03-01T03:37:57;21.35;;;11.78;;
60336;SDS011;46978;50.288;28.624;2023-03-01T03:39:00;23.58;;;12.59;;
60336;SDS011;46978;50.288;28.624;2023-03-01T03:40:02;20.10;;;11.51;;
60336;SDS011;46978;50.288;28.624;2023-03-01T03:41:05;21.56;;;12.07;;
60336;SDS011;46978;50.288;28.624;2023-03-01T03:42:08;24.90;;;13.48;;
60336;SDS011;46978;50.288;28.624;2023-03-01T03:43:12;23.49;;;12.72;;
60336;SDS011;46978;50.288;28.624;2023-03-01T03:45:22;20.24;;;11.49;;
60336;SDS011;46978;50.288;28.624;2023-03-01T03:46:24;20.93;;;11.63;;
60336;SDS011;46978;50.288;28.624;2023-03-01T03:47:25;21.59;;;11.74;;
60336;SDS011;46978;50.288;28.624;2023-03-01T03:48:27;22.02;;;12.26;;
60336;SDS011;46978;50.288;28.624;2023-03-01T03:49:29;25.56;;;13.61;;
60336;SDS011;46978;50.288;28.624;2023-03-01T03:50:31;22.16;;;12.04;;
60336;SDS011;46978;50.288;28.624;2023-03-01T03:51:33;21.25;;;12.31;;
60336;SDS011;46978;50.288;28.624;2023-03-01T03:52:34;23.23;;;13.30;;
60336;SDS011;46978;50.288;28.624;2023-03-01T03:53:36;25.04;;;14.09;;
60336;SDS011;46978;50.288;28.624;2023-03-01T03:54:38;20.59;;;12.52;;
60336;SDS011;46978;50.288;28.624;2023-03-01T03:55:39;21.78;;;12.98;;
60336;SDS011;46978;50.288;28.624;2023-03-01T03:56:41;23.81;;;13.13;;
60336;SDS011;46978;50.288;28.624;2023-03-01T03:57:43;24.86;;;12.58;;
60336;SDS011;46978;50.288;28.624;2023-03-01T03:58:44;22.11;;;12.62;;
60336;SDS011;46978;50.288;28.624;2023-03-01T03:59:46;22.53;;;12.94;;
60336;SDS011;46978;50.288;28.624;2023-03-01T04:00:48;22.42;;;12.96;;
60336;SDS011;46978;50.288;28.624;2023-03-01T04:01:52;20.53;;;12.94;;
60336;SDS011;46978;50.288;28.624;2023-03-01T04:02:54;22.49;;;12.75;;
60336;SDS011;46978;50.288;28.624;2023-03-01T04:03:55;21.68;;;12.51;;
60336;SDS011;46978;50.288;28.624;2023-03-01T04:04:57;19.61;;;12.19;;
60336;SDS011;46978;50.288;28.624;2023-03-01T04:05:59;21.56;;;12.36;;
60336;SDS011;46978;50.288;28.624;2023-03-01T04:07:01;19.31;;;10.93;;
60336;SDS011;46978;50.288;28.624;2023-03-01T04:08:03;22.22;;;12.46;;
60336;SDS011;46978;50.288;28.624;2023-03-01T04:09:05;19.18;;;12.09;;
60336;SDS011;46978;50.288;28.624;2023-03-01T04:10:13;19.03;;;11.91;;
60336;SDS011;46978;50.288;28.624;2023-03-01T04:11:13;23.53;;;12.83;;
60336;SDS011;46978;50.288;28.624;2023-03-01T04:12:14;20.82;;;12.02;;
60336;SDS011;46978;50.288;28.624;2023-03-01T04:13:17;22.44;;;12.33;;
60336;SDS011;46978;50.288;28.624;2023-03-01T04:14:20;21.22;;;11.95;;
60336;SDS011;46978;50.288;28.624;2023-03-01T04:15:22;19.89;;;11.61;;
60336;SDS011;46978;50.288;28.624;2023-03-01T04:16:25;24.55;;;13.09;;
60336;SDS011;46978;50.288;28.624;2023-03-01T04:17:27;19.49;;;12.28;;
60336;SDS011;46978;50.288;28.624;2023-03-01T04:18:28;22.85;;;13.24;;
60336;SDS011;46978;50.288;28.624;2023-03-01T04:19:35;20.91;;;12.84;;
60336;SDS011;46978;50.288;28.624;2023-03-01T04:20:34;24.60;;;12.41;;
60336;SDS011;46978;50.288;28.624;2023-03-01T04:21:36;22.10;;;12.41;;
60336;SDS011;46978;50.288;28.624;2023-03-01T04:22:39;20.94;;;12.32;;
60336;SDS011;46978;50.288;28.624;2023-03-01T04:23:41;23.36;;;12.90;;
60336;SDS011;46978;50.288;28.624;2023-03-01T04:24:43;21.26;;;11.60;;
60336;SDS011;46978;50.288;28.624;2023-03-01T04:25:54;20.19;;;11.60;;
60336;SDS011;46978;50.288;28.624;2023-03-01T04:26:57;21.05;;;12.73;;
60336;SDS011;46978;50.288;28.624;2023-03-01T04:27:59;23.91;;;13.21;;
60336;SDS011;46978;50.288;28.624;2023-03-01T04:29:00;21.06;;;12.74;;
60336;SDS011;46978;50.288;28.624;2023-03-01T04:30:03;21.99;;;12.56;;
60336;SDS011;46978;50.288;28.624;2023-03-01T04:31:06;20.95;;;12.41;;
60336;SDS011;46978;50.288;28.624;2023-03-01T04:32:09;21.01;;;11.98;;
60336;SDS011;46978;50.288;28.624;2023-03-01T04:33:11;22.09;;;13.14;;
60336;SDS011;46978;50.288;28.624;2023-03-01T04:34:12;23.67;;;13.57;;
60336;SDS011;46978;50.288;28.624;2023-03-01T04:35:14;22.17;;;12.59;;
60336;SDS011;46978;50.288;28.624;2023-03-01T04:36:16;24.47;;;13.49;;
60336;SDS011;46978;50.288;28.624;2023-03-01T04:37:19;24.62;;;14.13;;
60336;SDS011;46978;50.288;28.624;2023-03-01T04:38:20;24.51;;;13.37;;
60336;SDS011;46978;50.288;28.624;2023-03-01T04:39:22;25.53;;;14.15;;
60336;SDS011;46978;50.288;28.624;2023-03-01T04:40:24;26.26;;;14.50;;
60336;SDS011;46978;50.288;28.624;2023-03-01T04:41:25;24.67;;;14.87;;
60336;SDS011;46978;50.288;28.624;2023-03-01T04:42:27;25.81;;;13.66;;
60336;SDS011;46978;50.288;28.624;2023-03-01T04:43:29;23.86;;;14.21;;
60336;SDS011;46978;50.288;28.624;2023-03-01T04:44:31;25.11;;;14.03;;
60336;SDS011;46978;50.288;28.624;2023-03-01T04:45:32;25.87;;;14.14;;
60336;SDS011;46978;50.288;28.624;2023-03-01T04:46:35;32.15;;;17.11;;
60336;SDS011;46978;50.288;28.624;2023-03-01T04:47:37;31.70;;;18.05;;
60336;SDS011;46978;50.288;28.624;2023-03-01T04:48:39;31.55;;;18.88;;
60336;SDS011;46978;50.288;28.624;2023-03-01T04:49:42;31.81;;;17.94;;
60336;SDS011;46978;50.288;28.624;2023-03-01T04:50:44;26.90;;;16.79;;
60336;SDS011;46978;50.288;28.624;2023-03-01T04:51:45;33.22;;;20.21;;
60336;SDS011;46978;50.288;28.624;2023-03-01T04:52:47;30.38;;;19.37;;
60336;SDS011;46978;50.288;28.624;2023-03-01T04:53:48;29.12;;;17.61;;
60336;SDS011;46978;50.288;28.624;2023-03-01T04:54:50;26.77;;;16.04;;
60336;SDS011;46978;50.288;28.624;2023-03-01T04:55:53;23.11;;;14.09;;
60336;SDS011;46978;50.288;28.624;2023-03-01T04:56:55;25.48;;;14.66;;
60336;SDS011;46978;50.288;28.624;2023-03-01T04:57:57;27.31;;;14.97;;
60336;SDS011;46978;50.288;28.624;2023-03-01T04:58:59;24.24;;;14.24;;
60336;SDS011;46978;50.288;28.624;2023-03-01T05:01:23;25.19;;;13.53;;
60336;SDS011;46978;50.288;28.624;2023-03-01T05:02:25;27.45;;;14.18;;
60336;SDS011;46978;50.288;28.624;2023-03-01T05:03:26;23.73;;;14.73;;
60336;SDS011;46978;50.288;28.624;2023-03-01T05:04:28;23.51;;;14.06;;
60336;SDS011;46978;50.288;28.624;2023-03-01T05:05:32;24.22;;;13.74;;
60336;SDS011;46978;50.288;28.624;2023-03-01T05:06:37;23.80;;;13.88;;
60336;SDS011;46978;50.288;28.624;2023-03-01T05:07:39;24.14;;;13.40;;
60336;SDS011;46978;50.288;28.624;2023-03-01T05:08:40;22.67;;;13.18;;
60336;SDS011;46978;50.288;28.624;2023-03-01T05:09:43;21.17;;;13.54;;
60336;SDS011;46978;50.288;28.624;2023-03-01T05:10:45;23.58;;;12.41;;
60336;SDS011;46978;50.288;28.624;2023-03-01T05:11:50;22.52;;;13.56;;
60336;SDS011;46978;50.288;28.624;2023-03-01T05:12:52;23.84;;;13.91;;
60336;SDS011;46978;50.288;28.624;2023-03-01T05:13:53;24.69;;;14.44;;
60336;SDS011;46978;50.288;28.624;2023-03-01T05:14:55;24.12;;;13.45;;
60336;SDS011;46978;50.288;28.624;2023-03-01T05:16:01;25.60;;;13.99;;
60336;SDS011;46978;50.288;28.624;2023-03-01T05:17:01;24.65;;;13.18;;
60336;SDS011;46978;50.288;28.624;2023-03-01T05:18:03;24.61;;;13.29;;
60336;SDS011;46978;50.288;28.624;2023-03-01T05:19:04;23.56;;;13.70;;
60336;SDS011;46978;50.288;28.624;2023-03-01T05:20:07;21.75;;;12.51;;
60336;SDS011;46978;50.288;28.624;2023-03-01T05:21:10;23.29;;;13.42;;
60336;SDS011;46978;50.288;28.624;2023-03-01T05:22:13;25.46;;;12.51;;
60336;SDS011;46978;50.288;28.624;2023-03-01T05:23:14;23.05;;;13.47;;
60336;SDS011;46978;50.288;28.624;2023-03-01T05:24:16;22.89;;;12.79;;
60336;SDS011;46978;50.288;28.624;2023-03-01T05:25:18;24.96;;;13.34;;
60336;SDS011;46978;50.288;28.624;2023-03-01T05:26:19;21.15;;;12.42;;
60336;SDS011;46978;50.288;28.624;2023-03-01T05:27:21;21.82;;;12.58;;
60336;SDS011;46978;50.288;28.624;2023-03-01T05:28:23;23.87;;;13.28;;
60336;SDS011;46978;50.288;28.624;2023-03-01T05:29:26;22.76;;;13.74;;
60336;SDS011;46978;50.288;28.624;2023-03-01T05:30:28;23.01;;;12.98;;
60336;SDS011;46978;50.288;28.624;2023-03-01T05:31:30;21.70;;;12.51;;
60336;SDS011;46978;50.288;28.624;2023-03-01T05:32:31;24.44;;;12.71;;
60336;SDS011;46978;50.288;28.624;2023-03-01T05:33:33;23.78;;;13.69;;
60336;SDS011;46978;50.288;28.624;2023-03-01T05:34:35;23.62;;;13.84;;
60336;SDS011;46978;50.288;28.624;2023-03-01T05:35:37;24.30;;;13.12;;
60336;SDS011;46978;50.288;28.624;2023-03-01T05:36:38;20.33;;;11.71;;
60336;SDS011;46978;50.288;28.624;2023-03-01T05:37:44;22.73;;;13.07;;
60336;SDS011;46978;50.288;28.624;2023-03-01T05:38:47;23.31;;;12.96;;
60336;SDS011;46978;50.288;28.624;2023-03-01T05:39:48;20.86;;;13.38;;
60336;SDS011;46978;50.288;28.624;2023-03-01T05:40:50;20.55;;;13.07;;
60336;SDS011;46978;50.288;28.624;2023-03-01T05:41:56;23.71;;;13.49;;
60336;SDS011;46978;50.288;28.624;2023-03-01T05:42:56;24.98;;;12.98;;
60336;SDS011;46978;50.288;28.624;2023-03-01T05:43:58;24.39;;;13.22;;
60336;SDS011;46978;50.288;28.624;2023-03-01T05:45:00;23.28;;;13.09;;
60336;SDS011;46978;50.288;28.624;2023-03-01T05:46:02;22.98;;;13.15;;
60336;SDS011;46978;50.288;28.624;2023-03-01T05:47:03;21.21;;;13.09;;
60336;SDS011;46978;50.288;28.624;2023-03-01T05:48:05;22.15;;;13.33;;
60336;SDS011;46978;50.288;28.624;2023-03-01T05:49:08;22.25;;;12.18;;
60336;SDS011;46978;50.288;28.624;2023-03-01T05:50:15;22.21;;;12.79;;
60336;SDS011;46978;50.288;28.624;2023-03-01T05:51:18;23.99;;;12.46;;
60336;SDS011;46978;50.288;28.624;2023-03-01T05:52:20;22.19;;;13.15;;
60336;SDS011;46978;50.288;28.624;2023-03-01T05:53:21;24.39;;;13.56;;
60336;SDS011;46978;50.288;28.624;2023-03-01T05:54:23;23.58;;;13.27;;
60336;SDS011;46978;50.288;28.624;2023-03-01T05:55:25;21.56;;;12.76;;
60336;SDS011;46978;50.288;28.624;2023-03-01T05:56:27;23.90;;;12.99;;
60336;SDS011;46978;50.288;28.624;2023-03-01T05:57:28;22.16;;;13.37;;
60336;SDS011;46978;50.288;28.624;2023-03-01T05:58:30;22.81;;;12.78;;
60336;SDS011;46978;50.288;28.624;2023-03-01T05:59:32;22.66;;;13.11;;
60336;SDS011;46978;50.288;28.624;2023-03-01T06:00:33;23.69;;;14.23;;
60336;SDS011;46978;50.288;28.624;2023-03-01T06:01:36;23.88;;;13.87;;
60336;SDS011;46978;50.288;28.624;2023-03-01T06:02:38;23.48;;;13.74;;
60336;SDS011;46978;50.288;28.624;2023-03-01T06:03:40;28.75;;;17.44;;
60336;SDS011;46978;50.288;28.624;2023-03-01T06:04:42;26.55;;;15.27;;
60336;SDS011;46978;50.288;28.624;2023-03-01T06:05:43;29.49;;;15.76;;
60336;SDS011;46978;50.288;28.624;2023-03-01T06:06:46;28.43;;;15.33;;
60336;SDS011;46978;50.288;28.624;2023-03-01T06:07:47;36.76;;;19.17;;
60336;SDS011;46978;50.288;28.624;2023-03-01T06:08:49;27.25;;;16.41;;
60336;SDS011;46978;50.288;28.624;2023-03-01T06:09:52;36.45;;;19.81;;
60336;SDS011;46978;50.288;28.624;2023-03-01T06:10:53;46.68;;;24.76;;
60336;SDS011;46978;50.288;28.624;2023-03-01T06:11:55;42.49;;;23.18;;
60336;SDS011;46978;50.288;28.624;2023-03-01T06:12:57;34.26;;;20.32;;
60336;SDS011;46978;50.288;28.624;2023-03-01T06:13:58;28.37;;;16.95;;
60336;SDS011;46978;50.288;28.624;2023-03-01T06:15:00;27.96;;;16.29;;
60336;SDS011;46978;50.288;28.624;2023-03-01T06:16:05;28.25;;;16.24;;